createdAt,value
2022-10-10T00:00:20.275Z,0.90
2022-10-10T00:05:21.948Z,1.00
2022-10-10T00:10:23.706Z,1.05
2022-10-10T00:15:25.808Z,1.15
2022-10-10T00:20:27.514Z,1.13
2022-10-10T00:25:29.234Z,1.20
2022-10-10T00:30:31.424Z,1.30
2022-10-10T00:35:33.109Z,1.08
2022-10-10T00:40:35.059Z,1.30
2022-10-10T00:45:36.612Z,1.10
2022-10-10T00:50:50.549Z,1.15
2022-10-10T00:55:54.354Z,1.30
2022-10-10T01:00:56.927Z,1.02
2022-10-10T01:05:58.695Z,1.60
2022-10-10T01:11:39.576Z,1.20
2022-10-10T01:17:20.757Z,1.30
2022-10-10T01:22:31.651Z,1.30
2022-10-10T01:27:45.991Z,1.00
2022-10-10T01:33:11.656Z,1.30
2022-10-10T01:38:38.394Z,1.25
2022-10-10T01:43:40.510Z,1.10
2022-10-10T01:48:44.548Z,1.10
2022-10-10T01:54:23.872Z,1.35
2022-10-10T01:59:53.660Z,1.10
2022-10-10T02:05:05.463Z,1.50
2022-10-10T02:10:08.741Z,1.00
2022-10-10T02:15:14.213Z,1.33
2022-10-10T02:20:20.582Z,1.40
2022-10-10T02:25:26.862Z,1.10
2022-10-10T02:30:28.611Z,1.30
2022-10-10T02:35:38.484Z,1.00
2022-10-10T02:40:42.673Z,1.17
2022-10-10T02:45:44.933Z,1.45
2022-10-10T02:50:46.710Z,1.10
2022-10-10T02:55:48.378Z,1.15
2022-10-10T03:00:50.057Z,1.02
2022-10-10T03:05:51.834Z,1.42
2022-10-10T03:10:58.820Z,1.23
2022-10-10T03:16:00.463Z,1.40
2022-10-10T03:21:02.254Z,1.23
2022-10-10T03:26:04.953Z,1.17
2022-10-10T03:31:06.680Z,1.30
2022-10-10T03:36:08.301Z,1.70
2022-10-10T03:41:10.226Z,1.30
2022-10-10T03:46:16.095Z,1.30
2022-10-10T03:51:18.124Z,1.27
2022-10-10T03:56:19.777Z,1.20
2022-10-10T04:01:21.430Z,1.30
2022-10-10T04:06:23.332Z,1.30
2022-10-10T04:11:25.014Z,1.48
2022-10-10T04:16:26.614Z,1.30
2022-10-10T04:21:28.230Z,1.38
2022-10-10T04:26:29.958Z,1.10
2022-10-10T04:31:31.637Z,1.40
2022-10-10T04:36:33.348Z,1.40
2022-10-10T04:41:35.083Z,1.58
2022-10-10T04:46:36.740Z,1.60
2022-10-10T04:51:38.787Z,1.45
2022-10-10T04:56:42.434Z,1.70
2022-10-10T05:01:44.526Z,1.45
2022-10-10T05:06:46.602Z,1.45
2022-10-10T05:11:48.664Z,1.92
2022-10-10T05:16:50.689Z,1.50
2022-10-10T05:21:52.819Z,1.73
2022-10-10T05:26:54.866Z,1.45
2022-10-10T05:31:56.953Z,1.50
2022-10-10T05:36:58.984Z,1.30
2022-10-10T05:42:01.144Z,1.50
2022-10-10T05:47:04.372Z,1.50
2022-10-10T05:52:06.228Z,1.38
2022-10-10T05:57:09.151Z,1.48
2022-10-10T06:02:13.820Z,1.15
2022-10-10T06:07:16.192Z,1.40
2022-10-10T06:12:17.873Z,1.60
2022-10-10T06:17:19.674Z,1.45
2022-10-10T06:22:21.375Z,1.60
2022-10-10T06:27:23.187Z,1.38
2022-10-10T06:32:24.905Z,1.58
2022-10-10T06:37:26.508Z,1.50
2022-10-10T06:42:28.147Z,1.48
2022-10-10T06:47:32.314Z,1.75
2022-10-10T06:52:33.945Z,1.67
2022-10-10T06:57:35.669Z,1.60
2022-10-10T07:02:40.598Z,1.45
2022-10-10T07:07:43.478Z,1.50
2022-10-10T07:12:45.349Z,1.58
2022-10-10T07:17:51.874Z,1.50
2022-10-10T07:22:55.936Z,1.70
2022-10-10T07:27:57.718Z,1.58
2022-10-10T07:32:59.433Z,1.60
2022-10-10T07:38:01.395Z,1.70
2022-10-10T07:43:03.642Z,1.73
2022-10-10T07:48:05.642Z,1.65
2022-10-10T07:53:07.991Z,1.77
2022-10-10T07:58:13.871Z,2.28
2022-10-10T08:03:15.889Z,1.80
2022-10-10T08:08:17.518Z,1.63
2022-10-10T08:13:19.228Z,1.80
2022-10-10T08:18:21.265Z,1.60
2022-10-10T08:23:23.866Z,1.73
2022-10-10T08:28:26.123Z,1.83
2022-10-10T08:33:28.575Z,1.90
2022-10-10T08:38:30.254Z,1.42
2022-10-10T08:43:48.425Z,1.80
2022-10-10T08:48:55.619Z,1.55
2022-10-10T08:54:05.389Z,1.90
2022-10-10T08:59:22.245Z,1.90
2022-10-10T09:04:24.091Z,1.70
2022-10-10T09:09:50.638Z,1.42
2022-10-10T09:15:15.241Z,1.90
2022-10-10T09:20:20.436Z,1.77
2022-10-10T09:25:27.374Z,2.08
2022-10-10T09:30:31.831Z,1.92
2022-10-10T09:35:37.539Z,1.60
2022-10-10T09:40:47.187Z,1.65
2022-10-10T09:45:53.902Z,1.77
2022-10-10T09:50:55.955Z,1.80
2022-10-10T09:55:58.779Z,2.17
2022-10-10T10:01:19.697Z,2.03
2022-10-10T10:06:21.464Z,1.70
2022-10-10T10:11:30.777Z,1.60
2022-10-10T10:16:40.102Z,1.75
2022-10-10T10:21:52.510Z,1.90
2022-10-10T10:26:54.346Z,1.88
2022-10-10T10:32:33.909Z,2.00
2022-10-10T10:37:50.550Z,2.10
2022-10-10T10:43:13.891Z,1.90
2022-10-10T10:48:28.142Z,1.88
2022-10-10T10:53:45.017Z,1.98
2022-10-10T10:59:30.276Z,2.00
2022-10-10T11:05:17.480Z,2.20
2022-10-10T11:09:49.554Z,1.70
2022-10-10T11:15:09.148Z,1.90
2022-10-10T11:20:41.890Z,2.00
2022-10-10T11:25:54.968Z,1.60
2022-10-10T11:31:01.655Z,1.80
2022-10-10T11:36:10.279Z,1.67
2022-10-10T11:41:44.345Z,2.08
2022-10-10T11:46:54.091Z,1.50
2022-10-10T11:52:09.532Z,1.67
2022-10-10T11:57:25.439Z,1.15
2022-10-10T12:02:36.242Z,1.55
2022-10-10T12:08:04.832Z,1.20
2022-10-10T12:13:27.058Z,1.38
2022-10-10T12:18:45.526Z,1.30
2022-10-10T12:23:50.804Z,1.40
2022-10-10T12:29:09.667Z,1.40
2022-10-10T12:34:36.020Z,1.40
2022-10-10T12:39:39.324Z,1.40
2022-10-10T12:44:45.753Z,1.50
2022-10-10T12:49:53.330Z,1.60
2022-10-10T12:55:15.874Z,1.40
2022-10-10T13:00:26.257Z,1.40
2022-10-10T13:05:35.837Z,1.42
2022-10-10T13:10:37.581Z,1.50
2022-10-10T13:15:39.588Z,1.40
2022-10-10T13:20:41.916Z,1.40
2022-10-10T13:25:45.893Z,1.40
2022-10-10T13:30:51.159Z,1.48
2022-10-10T13:35:52.898Z,1.48
2022-10-10T13:40:54.876Z,1.80
2022-10-10T13:46:01.154Z,1.60
2022-10-10T13:51:09.358Z,1.48
2022-10-10T13:56:23.479Z,1.73
2022-10-10T14:01:35.420Z,1.60
2022-10-10T14:06:37.248Z,1.30
2022-10-10T14:11:41.520Z,1.30
2022-10-10T14:16:43.343Z,1.40
2022-10-10T14:21:45.422Z,1.23
2022-10-10T14:26:47.169Z,1.67
2022-10-10T14:31:48.976Z,1.90
2022-10-10T14:36:50.921Z,1.45
2022-10-10T14:41:52.653Z,1.73
2022-10-10T14:46:54.644Z,1.48
2022-10-10T14:51:56.317Z,1.60
2022-10-10T14:57:09.373Z,1.90
2022-10-10T15:02:11.660Z,1.50
2022-10-10T15:07:14.771Z,1.40
2022-10-10T15:12:16.915Z,1.35
2022-10-10T15:17:18.648Z,1.17
2022-10-10T15:22:20.473Z,1.70
2022-10-10T15:27:22.194Z,1.48
2022-10-10T15:32:24.178Z,2.00
2022-10-10T15:37:27.324Z,1.92
2022-10-10T15:42:29.079Z,1.45
2022-10-10T15:47:31.151Z,2.00
2022-10-10T15:52:32.843Z,1.73
2022-10-10T15:57:34.533Z,1.52
2022-10-10T16:02:37.528Z,1.90
2022-10-10T16:07:48.221Z,1.77
2022-10-10T16:12:50.256Z,1.50
2022-10-10T16:17:52.089Z,1.90
2022-10-10T16:22:53.736Z,1.88
2022-10-10T16:27:55.491Z,1.80
2022-10-10T16:32:59.059Z,2.10
2022-10-10T16:38:00.705Z,2.10
2022-10-10T16:43:03.287Z,2.05
2022-10-10T16:48:05.116Z,1.80
2022-10-10T16:53:07.688Z,2.60
2022-10-10T16:58:09.718Z,2.50
2022-10-10T17:03:11.426Z,3.28
2022-10-10T17:08:13.638Z,2.45
2022-10-10T17:13:15.275Z,3.00
2022-10-10T17:18:17.496Z,3.47
2022-10-10T17:23:19.331Z,3.15
2022-10-10T17:28:21.129Z,3.05
2022-10-10T17:33:23.479Z,2.30
2022-10-10T17:38:39.052Z,3.28
2022-10-10T17:43:42.318Z,2.95
2022-10-10T17:48:43.932Z,3.33
2022-10-10T17:53:45.544Z,3.45
2022-10-10T17:58:48.121Z,3.75
2022-10-10T18:03:51.331Z,4.22
2022-10-10T18:08:54.051Z,4.07
2022-10-10T18:14:00.360Z,4.60
2022-10-10T18:19:05.073Z,4.60
2022-10-10T18:24:07.342Z,5.20
2022-10-10T18:29:09.166Z,4.63
2022-10-10T18:34:11.981Z,3.72
2022-10-10T18:39:15.682Z,2.20
2022-10-10T18:44:18.544Z,1.83
2022-10-10T18:49:21.011Z,1.42
2022-10-10T18:54:23.121Z,2.17
2022-10-10T18:59:24.766Z,2.40
2022-10-10T19:04:26.642Z,2.10
2022-10-10T19:09:28.364Z,1.98
2022-10-10T19:14:29.954Z,1.73
2022-10-10T19:19:31.594Z,1.88
2022-10-10T19:24:33.268Z,2.00
2022-10-10T19:29:35.270Z,2.25
2022-10-10T19:34:37.760Z,1.60
2022-10-10T19:39:39.595Z,2.00
2022-10-10T19:44:41.237Z,1.77
2022-10-10T19:49:42.950Z,1.75
2022-10-10T19:54:44.626Z,1.58
2022-10-10T19:59:46.399Z,2.70
2022-10-10T20:04:48.015Z,1.58
2022-10-10T20:09:50.520Z,1.60
2022-10-10T20:14:52.595Z,2.05
2022-10-10T20:19:54.330Z,1.80
2022-10-10T20:24:56.072Z,2.15
2022-10-10T20:29:58.006Z,2.08
2022-10-10T20:35:00.610Z,1.88
2022-10-10T20:40:02.289Z,1.40
2022-10-10T20:45:08.014Z,1.67
2022-10-10T20:50:12.139Z,1.40
2022-10-10T20:55:15.162Z,1.50
2022-10-10T21:00:17.034Z,1.67
2022-10-10T21:05:18.720Z,1.38
2022-10-10T21:10:20.430Z,1.27
2022-10-10T21:15:22.285Z,1.33
2022-10-10T21:20:23.925Z,1.58
2022-10-10T21:25:25.630Z,1.55
2022-10-10T21:30:29.552Z,1.50
2022-10-10T21:35:31.509Z,1.20
2022-10-10T21:40:35.984Z,1.90
2022-10-10T21:45:38.632Z,1.38
2022-10-10T21:50:40.519Z,1.45
2022-10-10T21:55:42.171Z,1.40
2022-10-10T22:00:44.015Z,1.02
2022-10-10T22:05:45.838Z,1.52
2022-10-10T22:10:47.525Z,1.63
2022-10-10T22:15:49.189Z,1.27
2022-10-10T22:20:51.219Z,1.60
2022-10-10T22:25:52.911Z,1.45
2022-10-10T22:30:54.612Z,1.40
2022-10-10T22:35:56.326Z,1.33
2022-10-10T22:40:58.303Z,1.23
2022-10-10T22:46:00.200Z,0.95
2022-10-10T22:51:13.788Z,1.40
2022-10-10T22:56:19.053Z,1.90
2022-10-10T23:01:24.173Z,1.42
2022-10-10T23:06:26.249Z,1.08
2022-10-10T23:11:27.868Z,1.25
2022-10-10T23:16:32.580Z,1.30
2022-10-10T23:21:34.672Z,1.30
2022-10-10T23:26:36.346Z,1.80
2022-10-10T23:31:37.992Z,1.30
2022-10-10T23:36:39.654Z,1.48
2022-10-10T23:41:41.263Z,1.70
2022-10-10T23:46:42.882Z,2.10
2022-10-10T23:51:44.521Z,2.22
2022-10-10T23:56:46.125Z,1.80
